createdAt,value
2022-12-23T00:01:26.579Z,14.84
2022-12-23T00:03:57.605Z,14.81
2022-12-23T00:06:24.171Z,14.82
2022-12-23T00:08:58.196Z,14.82
2022-12-23T00:11:26.730Z,14.85
2022-12-23T00:14:20.652Z,14.90
2022-12-23T00:16:48.556Z,14.87
2022-12-23T00:19:15.175Z,14.88
2022-12-23T00:21:41.779Z,14.77
2022-12-23T00:24:08.946Z,14.78
2022-12-23T00:26:35.478Z,14.78
2022-12-23T00:29:02.027Z,14.69
2022-12-23T00:31:28.577Z,14.67
2022-12-23T00:33:55.221Z,14.69
2022-12-23T00:36:24.877Z,14.52
2022-12-23T00:39:10.286Z,14.54
2022-12-23T00:41:55.604Z,14.55
2022-12-23T00:44:22.323Z,14.49
2022-12-23T00:46:49.154Z,14.45
2022-12-23T00:49:36.439Z,14.45
2022-12-23T00:52:05.283Z,14.40
2022-12-23T00:54:34.769Z,14.39
2022-12-23T00:57:01.367Z,14.35
2022-12-23T00:59:27.951Z,14.25
2022-12-23T01:02:13.406Z,14.18
2022-12-23T01:05:02.992Z,14.14
2022-12-23T01:07:29.627Z,14.12
2022-12-23T01:09:56.144Z,14.15
2022-12-23T01:12:22.800Z,14.00
2022-12-23T01:14:49.467Z,13.96
2022-12-23T01:17:16.127Z,13.91
2022-12-23T01:19:42.751Z,13.99
2022-12-23T01:22:09.483Z,13.92
2022-12-23T01:24:36.036Z,14.13
2022-12-23T01:27:02.504Z,14.06
2022-12-23T01:29:29.833Z,13.91
2022-12-23T01:31:56.463Z,13.80
2022-12-23T01:34:23.070Z,13.72
2022-12-23T01:36:49.821Z,13.80
2022-12-23T01:39:16.411Z,13.77
2022-12-23T01:42:01.702Z,13.76
2022-12-23T01:44:52.798Z,13.72
2022-12-23T01:47:34.155Z,13.62
2022-12-23T01:50:12.800Z,13.59
2022-12-23T01:52:45.965Z,13.58
2022-12-23T01:55:14.578Z,13.52
2022-12-23T01:57:43.016Z,13.45
2022-12-23T02:00:29.242Z,13.41
2022-12-23T02:03:14.419Z,13.36
2022-12-23T02:05:44.884Z,13.34
2022-12-23T02:08:30.967Z,13.60
2022-12-23T02:11:13.896Z,13.45
2022-12-23T02:14:31.858Z,13.43
2022-12-23T02:17:15.813Z,13.35
2022-12-23T02:19:59.993Z,13.32
2022-12-23T02:22:41.788Z,13.34
2022-12-23T02:25:25.998Z,13.26
2022-12-23T02:28:19.805Z,13.20
2022-12-23T02:30:53.168Z,13.15
2022-12-23T02:33:23.862Z,13.15
2022-12-23T02:35:59.662Z,13.21
2022-12-23T02:38:52.016Z,13.23
2022-12-23T02:41:42.416Z,13.17
2022-12-23T02:44:13.544Z,13.15
2022-12-23T02:46:51.711Z,13.14
2022-12-23T02:49:32.432Z,13.08
2022-12-23T02:52:03.264Z,13.00
2022-12-23T02:54:34.067Z,12.97
2022-12-23T02:57:04.273Z,12.98
2022-12-23T02:59:38.071Z,12.96
2022-12-23T03:02:04.675Z,12.95
2022-12-23T03:04:31.512Z,13.02
2022-12-23T03:07:07.230Z,13.05
2022-12-23T03:09:43.204Z,13.03
2022-12-23T03:12:48.199Z,13.09
2022-12-23T03:15:33.399Z,13.14
2022-12-23T03:18:12.207Z,13.12
2022-12-23T03:20:51.087Z,13.18
2022-12-23T03:23:30.713Z,13.04
2022-12-23T03:26:39.090Z,13.14
2022-12-23T03:29:10.363Z,13.09
2022-12-23T03:31:39.521Z,13.05
2022-12-23T03:34:10.868Z,13.01
2022-12-23T03:36:47.267Z,12.90
2022-12-23T03:39:19.915Z,12.84
2022-12-23T03:42:00.555Z,12.76
2022-12-23T03:44:32.726Z,12.84
2022-12-23T03:47:16.900Z,12.91
2022-12-23T03:49:49.217Z,12.93
2022-12-23T03:52:21.707Z,12.89
2022-12-23T03:54:54.307Z,12.87
2022-12-23T03:57:26.082Z,12.80
2022-12-23T03:59:53.418Z,12.85
2022-12-23T04:02:26.081Z,12.98
2022-12-23T04:05:03.259Z,12.98
2022-12-23T04:07:45.171Z,12.97
2022-12-23T04:10:13.062Z,13.05
2022-12-23T04:12:40.391Z,13.14
2022-12-23T04:15:12.497Z,13.10
2022-12-23T04:17:39.736Z,13.02
2022-12-23T04:20:07.289Z,12.94
2022-12-23T04:22:35.008Z,12.88
2022-12-23T04:25:01.624Z,12.82
2022-12-23T04:27:28.122Z,12.85
2022-12-23T04:29:54.664Z,12.83
2022-12-23T04:32:21.864Z,12.85
2022-12-23T04:34:48.418Z,12.82
2022-12-23T04:37:14.887Z,12.77
2022-12-23T04:39:41.382Z,12.75
2022-12-23T04:42:07.879Z,12.71
2022-12-23T04:44:34.335Z,12.73
2022-12-23T04:47:00.954Z,12.67
2022-12-23T04:49:27.577Z,12.60
2022-12-23T04:51:54.158Z,12.55
2022-12-23T04:54:20.693Z,12.48
2022-12-23T04:56:47.300Z,12.43
2022-12-23T04:59:13.909Z,12.40
2022-12-23T05:01:42.463Z,12.38
2022-12-23T05:04:10.349Z,12.37
2022-12-23T05:06:37.463Z,12.34
2022-12-23T05:09:04.711Z,12.32
2022-12-23T05:11:33.310Z,12.39
2022-12-23T05:14:02.848Z,12.42
2022-12-23T05:16:31.255Z,12.36
2022-12-23T05:18:58.099Z,12.32
2022-12-23T05:21:24.800Z,12.36
2022-12-23T05:23:51.736Z,12.40
2022-12-23T05:26:18.446Z,12.30
2022-12-23T05:28:45.652Z,12.22
2022-12-23T05:31:13.251Z,12.10
2022-12-23T05:33:40.292Z,12.04
2022-12-23T05:36:07.645Z,11.99
2022-12-23T05:38:34.311Z,11.99
2022-12-23T05:41:00.983Z,11.99
2022-12-23T05:43:27.598Z,11.97
2022-12-23T05:45:54.243Z,11.95
2022-12-23T05:48:21.385Z,11.90
2022-12-23T05:50:52.004Z,11.90
2022-12-23T05:53:19.322Z,11.87
2022-12-23T05:55:46.281Z,11.91
2022-12-23T05:58:13.166Z,11.89
2022-12-23T06:00:39.685Z,11.85
2022-12-23T06:03:06.441Z,11.84
2022-12-23T06:05:33.082Z,11.82
2022-12-23T06:07:59.620Z,11.81
2022-12-23T06:10:26.438Z,11.75
2022-12-23T06:12:52.947Z,11.72
2022-12-23T06:15:19.729Z,11.67
2022-12-23T06:17:46.375Z,11.65
2022-12-23T06:20:20.020Z,11.65
2022-12-23T06:22:47.215Z,11.65
2022-12-23T06:25:13.818Z,11.68
2022-12-23T06:27:40.373Z,11.69
2022-12-23T06:30:07.905Z,11.62
2022-12-23T06:32:38.272Z,11.65
2022-12-23T06:35:06.653Z,11.57
2022-12-23T06:37:33.193Z,11.54
2022-12-23T06:39:59.704Z,11.55
2022-12-23T06:42:26.248Z,11.51
2022-12-23T06:44:52.791Z,11.51
2022-12-23T06:47:19.321Z,11.49
2022-12-23T06:49:45.890Z,11.45
2022-12-23T06:52:12.444Z,11.40
2022-12-23T06:54:38.993Z,11.39
2022-12-23T06:57:05.606Z,11.36
2022-12-23T06:59:32.152Z,11.35
2022-12-23T07:01:59.174Z,11.30
2022-12-23T07:04:25.859Z,11.27
2022-12-23T07:06:52.367Z,11.26
2022-12-23T07:09:18.906Z,11.25
2022-12-23T07:11:45.805Z,11.25
2022-12-23T07:14:12.299Z,11.37
2022-12-23T07:16:38.840Z,11.32
2022-12-23T07:19:05.463Z,11.22
2022-12-23T07:21:31.989Z,11.21
2022-12-23T07:23:58.530Z,11.14
2022-12-23T07:26:25.125Z,11.17
2022-12-23T07:28:51.596Z,11.13
2022-12-23T07:31:18.209Z,11.07
2022-12-23T07:33:45.068Z,11.07
2022-12-23T07:36:11.623Z,11.10
2022-12-23T07:38:38.135Z,11.03
2022-12-23T07:41:04.817Z,10.99
2022-12-23T07:43:31.356Z,11.03
2022-12-23T07:46:00.597Z,11.00
2022-12-23T07:48:28.367Z,11.11
2022-12-23T07:51:00.812Z,11.11
2022-12-23T07:53:27.394Z,11.15
2022-12-23T07:55:56.640Z,11.17
2022-12-23T07:58:23.595Z,11.14
2022-12-23T08:00:50.225Z,11.11
2022-12-23T08:03:17.281Z,11.11
2022-12-23T08:05:43.903Z,11.12
2022-12-23T08:08:10.498Z,11.10
2022-12-23T08:10:41.425Z,11.14
2022-12-23T08:13:11.065Z,11.19
2022-12-23T08:15:37.634Z,11.23
2022-12-23T08:18:04.607Z,11.28
2022-12-23T08:20:31.052Z,11.32
2022-12-23T08:22:57.542Z,11.34
2022-12-23T08:25:24.021Z,11.41
2022-12-23T08:27:51.352Z,11.46
2022-12-23T08:30:18.856Z,11.50
2022-12-23T08:32:45.468Z,11.55
2022-12-23T08:35:12.065Z,11.60
2022-12-23T08:37:38.701Z,11.66
2022-12-23T08:40:05.886Z,11.70
2022-12-23T08:42:32.419Z,11.71
2022-12-23T08:44:59.004Z,11.74
2022-12-23T08:47:25.593Z,11.76
2022-12-23T08:49:52.083Z,11.80
2022-12-23T08:52:18.629Z,11.86
2022-12-23T08:54:45.176Z,11.89
2022-12-23T08:57:11.672Z,12.00
2022-12-23T08:59:38.886Z,12.07
2022-12-23T09:02:05.683Z,12.11
2022-12-23T09:04:32.397Z,12.05
2022-12-23T09:06:59.155Z,12.01
2022-12-23T09:09:25.657Z,12.05
2022-12-23T09:11:52.235Z,12.19
2022-12-23T09:14:18.833Z,12.33
2022-12-23T09:16:45.379Z,12.37
2022-12-23T09:19:11.985Z,12.45
2022-12-23T09:21:38.540Z,12.54
2022-12-23T09:24:05.466Z,12.59
2022-12-23T09:26:32.471Z,12.70
2022-12-23T09:28:59.506Z,12.74
2022-12-23T09:31:32.341Z,12.79
2022-12-23T09:34:00.791Z,12.86
2022-12-23T09:36:27.281Z,12.85
2022-12-23T09:38:55.832Z,12.87
2022-12-23T09:42:03.753Z,12.87
2022-12-23T09:44:43.165Z,12.92
2022-12-23T09:47:17.314Z,12.94
2022-12-23T09:49:49.368Z,12.95
2022-12-23T09:52:25.088Z,12.96
2022-12-23T09:54:54.717Z,12.98
2022-12-23T09:57:23.162Z,12.99
2022-12-23T10:00:05.721Z,12.93
2022-12-23T10:02:53.685Z,13.04
2022-12-23T10:05:20.985Z,13.07
2022-12-23T10:07:56.046Z,13.10
2022-12-23T10:10:31.859Z,13.16
2022-12-23T10:13:01.938Z,13.17
2022-12-23T10:15:43.047Z,13.24
2022-12-23T10:18:35.222Z,13.33
2022-12-23T10:21:06.407Z,13.40
2022-12-23T10:23:38.870Z,13.51
2022-12-23T10:26:51.869Z,13.56
2022-12-23T10:29:26.489Z,13.59
2022-12-23T10:32:17.600Z,13.64
2022-12-23T10:35:11.990Z,13.72
2022-12-23T10:37:50.822Z,13.80
2022-12-23T10:40:32.900Z,13.88
2022-12-23T10:43:11.352Z,13.94
2022-12-23T10:46:02.073Z,13.88
2022-12-23T10:48:31.403Z,13.95
2022-12-23T10:51:23.027Z,14.04
2022-12-23T10:53:57.455Z,14.03
2022-12-23T10:56:23.925Z,14.10
2022-12-23T10:58:55.185Z,14.13
2022-12-23T11:01:27.054Z,14.06
2022-12-23T11:04:08.803Z,14.20
2022-12-23T11:06:40.928Z,14.18
2022-12-23T11:09:16.564Z,14.19
2022-12-23T11:11:56.167Z,14.18
2022-12-23T11:14:43.799Z,14.30
2022-12-23T11:17:28.797Z,14.40
2022-12-23T11:20:10.327Z,14.39
2022-12-23T11:22:47.628Z,14.42
2022-12-23T11:25:33.718Z,14.43
2022-12-23T11:28:22.190Z,14.51
2022-12-23T11:31:00.787Z,14.55
2022-12-23T11:33:34.286Z,14.86
2022-12-23T11:36:03.850Z,15.08
2022-12-23T11:38:31.005Z,15.10
2022-12-23T11:40:58.311Z,15.12
2022-12-23T11:43:27.417Z,15.12
2022-12-23T11:46:13.963Z,15.11
2022-12-23T11:48:40.851Z,15.17
2022-12-23T11:51:07.379Z,15.21
2022-12-23T11:53:35.006Z,15.26
2022-12-23T11:56:07.385Z,15.25
2022-12-23T11:58:50.736Z,15.26
2022-12-23T12:01:20.532Z,15.29
2022-12-23T12:04:09.188Z,15.30
2022-12-23T12:06:42.326Z,15.48
2022-12-23T12:09:12.603Z,15.59
2022-12-23T12:11:49.299Z,15.59
2022-12-23T12:14:23.911Z,15.65
2022-12-23T12:16:59.587Z,15.82
2022-12-23T12:19:31.382Z,15.83
2022-12-23T12:22:04.634Z,15.95
2022-12-23T12:24:41.556Z,15.97
2022-12-23T12:27:11.202Z,16.07
2022-12-23T12:29:45.753Z,16.05
2022-12-23T12:32:21.300Z,16.23
2022-12-23T12:35:04.982Z,16.23
2022-12-23T12:37:43.365Z,16.24
2022-12-23T12:40:32.412Z,16.28
2022-12-23T12:43:11.288Z,16.33
2022-12-23T12:45:50.177Z,16.39
2022-12-23T12:48:22.488Z,16.42
2022-12-23T12:50:59.511Z,16.55
2022-12-23T12:53:28.655Z,16.58
2022-12-23T12:56:08.386Z,16.59
2022-12-23T12:58:34.891Z,16.64
2022-12-23T13:01:08.816Z,16.68
2022-12-23T13:03:57.157Z,16.72
2022-12-23T13:06:29.537Z,16.63
2022-12-23T13:09:08.708Z,16.64
2022-12-23T13:11:45.221Z,16.59
2022-12-23T13:14:50.502Z,16.62
2022-12-23T13:17:31.899Z,16.58
2022-12-23T13:20:20.424Z,16.53
2022-12-23T13:22:53.353Z,16.53
2022-12-23T13:25:29.993Z,16.54
2022-12-23T13:28:05.301Z,16.60
2022-12-23T13:30:39.271Z,16.70
2022-12-23T13:33:06.758Z,16.80
2022-12-23T13:36:04.949Z,16.88
2022-12-23T13:38:41.307Z,16.90
2022-12-23T13:41:21.642Z,16.89
2022-12-23T13:43:56.428Z,16.91
2022-12-23T13:46:38.144Z,16.95
2022-12-23T13:49:35.406Z,17.02
2022-12-23T13:52:17.213Z,17.17
2022-12-23T13:54:43.661Z,17.09
2022-12-23T13:57:31.885Z,17.10
2022-12-23T14:00:17.311Z,17.04
2022-12-23T14:02:51.813Z,17.01
2022-12-23T14:05:33.548Z,16.97
2022-12-23T14:08:03.578Z,16.96
2022-12-23T14:10:31.327Z,17.04
2022-12-23T14:13:05.772Z,17.09
2022-12-23T14:15:44.379Z,17.08
2022-12-23T14:18:35.926Z,17.11
2022-12-23T14:21:40.839Z,17.01
2022-12-23T14:24:35.275Z,17.03
2022-12-23T14:27:23.756Z,17.05
2022-12-23T14:30:08.483Z,17.08
2022-12-23T14:32:53.751Z,17.04
2022-12-23T14:35:38.322Z,17.01
2022-12-23T14:38:14.519Z,17.01
2022-12-23T14:40:47.152Z,16.99
2022-12-23T14:43:23.169Z,17.09
2022-12-23T14:45:52.432Z,17.04
2022-12-23T14:48:34.313Z,17.16
2022-12-23T14:51:23.461Z,17.19
2022-12-23T14:53:53.690Z,17.13
2022-12-23T14:56:43.156Z,17.20
2022-12-23T14:59:27.732Z,17.13
2022-12-23T15:01:56.637Z,17.05
2022-12-23T15:04:35.722Z,17.04
2022-12-23T15:07:16.735Z,17.10
2022-12-23T15:10:01.062Z,17.17
2022-12-23T15:12:34.053Z,17.01
2022-12-23T15:15:04.982Z,16.96
2022-12-23T15:17:36.722Z,16.90
2022-12-23T15:20:24.880Z,16.84
2022-12-23T15:22:52.697Z,16.88
2022-12-23T15:25:19.185Z,16.81
2022-12-23T15:27:46.013Z,16.87
2022-12-23T15:30:14.022Z,16.83
2022-12-23T15:32:45.505Z,16.81
2022-12-23T15:35:22.659Z,16.72
2022-12-23T15:37:50.952Z,16.76
2022-12-23T15:40:36.381Z,16.83
2022-12-23T15:43:17.817Z,16.72
2022-12-23T15:45:44.349Z,16.64
2022-12-23T15:48:31.436Z,16.56
2022-12-23T15:51:04.301Z,16.52
2022-12-23T15:53:38.185Z,16.49
2022-12-23T15:56:09.235Z,16.45
2022-12-23T15:58:40.380Z,16.44
2022-12-23T16:01:13.253Z,16.50
2022-12-23T16:03:42.662Z,16.48
2022-12-23T16:06:25.553Z,16.40
2022-12-23T16:09:00.927Z,16.36
2022-12-23T16:12:01.502Z,16.26
2022-12-23T16:14:32.864Z,16.31
2022-12-23T16:17:15.404Z,16.24
2022-12-23T16:19:49.427Z,16.13
2022-12-23T16:22:28.664Z,16.06
2022-12-23T16:25:24.628Z,16.07
2022-12-23T16:28:07.863Z,16.06
2022-12-23T16:30:37.305Z,15.94
2022-12-23T16:33:07.686Z,15.85
2022-12-23T16:35:41.844Z,15.72
2022-12-23T16:38:32.291Z,15.71
2022-12-23T16:40:58.776Z,15.71
2022-12-23T16:43:25.544Z,15.60
2022-12-23T16:45:56.803Z,15.65
2022-12-23T16:48:40.429Z,15.53
2022-12-23T16:51:18.460Z,15.47
2022-12-23T16:53:44.941Z,15.43
2022-12-23T16:56:16.925Z,15.49
2022-12-23T16:58:44.272Z,15.54
2022-12-23T17:01:34.173Z,15.62
2022-12-23T17:04:00.761Z,15.63
2022-12-23T17:06:27.814Z,15.72
2022-12-23T17:08:54.530Z,15.74
2022-12-23T17:11:25.275Z,15.71
2022-12-23T17:13:52.897Z,15.76
2022-12-23T17:16:24.352Z,15.71
2022-12-23T17:18:53.016Z,15.69
2022-12-23T17:21:30.267Z,15.75
2022-12-23T17:24:10.200Z,15.74
2022-12-23T17:26:37.014Z,15.67
2022-12-23T17:29:04.965Z,15.80
2022-12-23T17:31:34.672Z,15.82
2022-12-23T17:34:02.052Z,15.74
2022-12-23T17:36:29.331Z,15.72
2022-12-23T17:38:55.939Z,15.59
2022-12-23T17:41:28.521Z,15.48
2022-12-23T17:43:55.363Z,15.41
2022-12-23T17:46:21.974Z,15.37
2022-12-23T17:48:48.717Z,15.36
2022-12-23T17:51:17.737Z,15.29
2022-12-23T17:53:46.766Z,15.28
2022-12-23T17:56:15.477Z,15.33
2022-12-23T17:58:42.983Z,15.33
2022-12-23T18:01:20.097Z,15.30
2022-12-23T18:03:47.259Z,15.36
2022-12-23T18:06:15.806Z,15.32
2022-12-23T18:08:42.588Z,15.32
2022-12-23T18:11:20.437Z,15.32
2022-12-23T18:13:48.820Z,15.25
2022-12-23T18:16:15.327Z,15.22
2022-12-23T18:18:46.184Z,15.18
2022-12-23T18:21:23.823Z,15.19
2022-12-23T18:23:52.085Z,15.13
2022-12-23T18:26:18.630Z,15.17
2022-12-23T18:28:45.231Z,15.24
2022-12-23T18:31:17.983Z,15.21
2022-12-23T18:33:44.995Z,15.25
2022-12-23T18:36:24.873Z,15.24
2022-12-23T18:38:52.677Z,15.21
2022-12-23T18:41:20.701Z,15.20
2022-12-23T18:43:47.764Z,15.11
2022-12-23T18:46:14.479Z,15.12
2022-12-23T18:48:41.120Z,15.11
2022-12-23T18:51:08.458Z,15.02
2022-12-23T18:53:35.033Z,14.92
2022-12-23T18:56:01.563Z,14.93
2022-12-23T18:58:28.110Z,14.94
2022-12-23T19:00:54.877Z,14.87
2022-12-23T19:03:23.592Z,14.86
2022-12-23T19:05:51.712Z,14.83
2022-12-23T19:08:25.558Z,14.79
2022-12-23T19:10:53.914Z,14.68
2022-12-23T19:13:20.724Z,14.68
2022-12-23T19:15:47.273Z,14.74
2022-12-23T19:18:20.277Z,14.72
2022-12-23T19:20:48.337Z,14.69
2022-12-23T19:23:15.690Z,14.61
2022-12-23T19:25:49.257Z,14.59
2022-12-23T19:28:21.607Z,14.52
2022-12-23T19:30:48.590Z,14.49
2022-12-23T19:33:15.205Z,14.44
2022-12-23T19:35:42.660Z,14.39
2022-12-23T19:38:09.975Z,14.37
2022-12-23T19:40:36.562Z,14.33
2022-12-23T19:43:03.512Z,14.30
2022-12-23T19:45:30.054Z,14.31
2022-12-23T19:47:56.600Z,14.30
2022-12-23T19:50:23.234Z,14.30
2022-12-23T19:52:50.679Z,14.28
2022-12-23T19:55:17.387Z,14.21
2022-12-23T19:57:43.943Z,14.12
2022-12-23T20:00:11.330Z,14.12
2022-12-23T20:02:37.911Z,14.10
2022-12-23T20:05:05.067Z,14.06
2022-12-23T20:07:31.655Z,14.06
2022-12-23T20:09:58.151Z,13.97
2022-12-23T20:12:26.439Z,13.93
2022-12-23T20:14:52.983Z,13.91
2022-12-23T20:17:19.519Z,13.90
2022-12-23T20:19:46.598Z,13.85
2022-12-23T20:22:13.966Z,13.81
2022-12-23T20:24:40.484Z,13.81
2022-12-23T20:27:11.390Z,13.74
2022-12-23T20:29:38.501Z,13.75
2022-12-23T20:32:05.317Z,13.71
2022-12-23T20:34:38.412Z,13.68
2022-12-23T20:37:06.205Z,13.58
2022-12-23T20:39:32.778Z,13.58
2022-12-23T20:41:59.382Z,13.56
2022-12-23T20:44:34.891Z,13.41
2022-12-23T20:47:02.962Z,13.44
2022-12-23T20:49:29.680Z,13.51
2022-12-23T20:51:56.243Z,13.50
2022-12-23T20:54:27.856Z,13.49
2022-12-23T20:56:58.920Z,13.51
2022-12-23T20:59:25.505Z,13.54
2022-12-23T21:01:52.199Z,13.46
2022-12-23T21:04:19.090Z,13.59
2022-12-23T21:06:46.308Z,13.50
2022-12-23T21:09:15.013Z,13.45
2022-12-23T21:11:45.106Z,13.38
2022-12-23T21:14:11.735Z,13.33
2022-12-23T21:16:38.989Z,13.40
2022-12-23T21:19:07.432Z,13.32
2022-12-23T21:21:34.087Z,13.25
2022-12-23T21:24:04.272Z,13.29
2022-12-23T21:26:33.549Z,13.25
2022-12-23T21:29:01.894Z,13.25
2022-12-23T21:31:31.013Z,13.23
2022-12-23T21:33:58.569Z,13.04
2022-12-23T21:36:30.926Z,13.06
2022-12-23T21:38:58.065Z,13.05
2022-12-23T21:41:29.999Z,13.06
2022-12-23T21:43:58.155Z,13.03
2022-12-23T21:46:25.768Z,13.12
2022-12-23T21:48:52.445Z,13.07
2022-12-23T21:51:22.943Z,13.00
2022-12-23T21:53:52.483Z,12.98
2022-12-23T21:56:24.375Z,12.99
2022-12-23T21:58:55.080Z,12.98
2022-12-23T22:01:21.971Z,12.99
2022-12-23T22:03:50.851Z,12.97
2022-12-23T22:06:36.739Z,13.00
2022-12-23T22:09:07.793Z,12.98
2022-12-23T22:11:36.906Z,12.95
2022-12-23T22:14:06.111Z,12.93
2022-12-23T22:16:33.699Z,12.91
2022-12-23T22:19:02.410Z,12.92
2022-12-23T22:21:31.178Z,12.91
2022-12-23T22:23:58.496Z,12.89
2022-12-23T22:26:28.263Z,12.89
2022-12-23T22:28:55.755Z,12.87
2022-12-23T22:31:36.778Z,12.83
2022-12-23T22:34:04.041Z,12.82
2022-12-23T22:36:30.895Z,12.84
2022-12-23T22:38:59.494Z,12.87
2022-12-23T22:41:28.091Z,12.82
2022-12-23T22:43:55.029Z,12.83
2022-12-23T22:46:21.978Z,12.82
2022-12-23T22:48:48.643Z,12.80
2022-12-23T22:51:17.889Z,12.73
2022-12-23T22:53:44.814Z,12.68
2022-12-23T22:56:13.730Z,12.59
2022-12-23T22:58:40.653Z,12.62
2022-12-23T23:01:17.593Z,12.61
2022-12-23T23:03:44.073Z,12.57
2022-12-23T23:06:11.459Z,12.54
2022-12-23T23:08:37.979Z,12.53
2022-12-23T23:11:05.252Z,12.59
2022-12-23T23:13:33.841Z,12.58
2022-12-23T23:16:01.807Z,12.53
2022-12-23T23:18:29.503Z,12.49
2022-12-23T23:20:56.133Z,12.44
2022-12-23T23:23:22.882Z,12.42
2022-12-23T23:25:49.524Z,12.45
2022-12-23T23:28:16.605Z,12.41
2022-12-23T23:30:43.315Z,12.34
2022-12-23T23:33:10.518Z,12.35
2022-12-23T23:35:37.205Z,12.48
2022-12-23T23:38:04.099Z,12.41
2022-12-23T23:40:30.850Z,12.38
2022-12-23T23:42:57.415Z,12.36
2022-12-23T23:45:24.232Z,12.45
2022-12-23T23:47:50.871Z,12.31
2022-12-23T23:50:17.613Z,12.32
2022-12-23T23:52:44.241Z,12.27
2022-12-23T23:55:10.901Z,12.30
2022-12-23T23:57:37.984Z,12.31
